createdAt,value
2017-05-07T00:01:03.216Z,1007.04
2017-05-07T00:02:14.427Z,1007.07
2017-05-07T00:03:25.433Z,1007.07
2017-05-07T00:04:36.484Z,1007.06
2017-05-07T00:05:47.495Z,1007.05
2017-05-07T00:06:58.491Z,1007.07
2017-05-07T00:08:09.698Z,1007.09
2017-05-07T00:09:20.712Z,1007.07
2017-05-07T00:10:31.720Z,1007.06
2017-05-07T00:11:42.718Z,1007.06
2017-05-07T00:12:53.736Z,1007.06
2017-05-07T00:14:04.737Z,1007.1
2017-05-07T00:15:15.787Z,1007.09
2017-05-07T00:16:26.991Z,1007.11
2017-05-07T00:17:37.983Z,1007.11
2017-05-07T00:18:48.990Z,1007.12
2017-05-07T00:20:00.001Z,1007.11
2017-05-07T00:21:11.056Z,1007.17
2017-05-07T00:22:22.059Z,1007.12
2017-05-07T00:23:33.061Z,1007.08
2017-05-07T00:24:44.073Z,1007.08
2017-05-07T00:25:55.302Z,1007.12
2017-05-07T00:27:06.313Z,1007.08
2017-05-07T00:28:17.720Z,1007.11
2017-05-07T00:29:28.718Z,1007.1
2017-05-07T00:30:39.723Z,1007.07
2017-05-07T00:31:50.732Z,1007.09
2017-05-07T00:33:01.940Z,1007.08
2017-05-07T00:34:12.943Z,1007.04
2017-05-07T00:35:23.948Z,1007.03
2017-05-07T00:36:34.950Z,1007.04
2017-05-07T00:37:45.955Z,1007.04
2017-05-07T00:38:57.021Z,1007.05
2017-05-07T00:40:08.028Z,1007.06
2017-05-07T00:41:19.033Z,1007.02
2017-05-07T00:42:30.043Z,1007.08
2017-05-07T00:43:41.050Z,1007.09
2017-05-07T00:44:52.055Z,1007.08
2017-05-07T00:46:03.252Z,1007.08
2017-05-07T00:47:14.253Z,1007.06
2017-05-07T00:48:25.304Z,1007.1
2017-05-07T00:49:36.303Z,1007.08
2017-05-07T00:50:47.514Z,1007.11
2017-05-07T00:51:58.525Z,1007.1
2017-05-07T00:53:09.733Z,1007.13
2017-05-07T00:54:20.737Z,1007.08
2017-05-07T00:55:31.943Z,1007.06
2017-05-07T00:56:42.945Z,1007.05
2017-05-07T00:57:53.964Z,1007.09
2017-05-07T00:59:05.016Z,1007.08
2017-05-07T01:00:16.035Z,1007.08
2017-05-07T01:01:27.060Z,1007.11
2017-05-07T01:02:38.066Z,1007.13
2017-05-07T01:03:49.087Z,1007.13
2017-05-07T01:05:00.100Z,1007.13
2017-05-07T01:06:11.503Z,1007.13
2017-05-07T01:07:22.516Z,1007.15
2017-05-07T01:08:33.525Z,1007.15
2017-05-07T01:09:44.591Z,1007.12
2017-05-07T01:10:55.607Z,1007.11
2017-05-07T01:12:06.603Z,1007.11
2017-05-07T01:13:17.600Z,1007.11
2017-05-07T01:14:28.641Z,1007.14
2017-05-07T01:15:39.658Z,1007.12
2017-05-07T01:16:50.674Z,1007.15
2017-05-07T01:18:01.881Z,1007.16
2017-05-07T01:19:12.893Z,1007.11
2017-05-07T01:20:23.902Z,1007.14
2017-05-07T01:21:34.915Z,1007.15
2017-05-07T01:22:46.126Z,1007.12
2017-05-07T01:23:57.337Z,1007.17
2017-05-07T01:25:08.387Z,1007.12
2017-05-07T01:26:19.801Z,1007.16
2017-05-07T01:27:30.816Z,1007.17
2017-05-07T01:28:41.832Z,1007.17
2017-05-07T01:29:52.834Z,1007.21
2017-05-07T01:31:03.844Z,1007.18
2017-05-07T01:32:14.847Z,1007.15
2017-05-07T01:33:25.854Z,1007.16
2017-05-07T01:34:36.863Z,1007.13
2017-05-07T01:35:48.063Z,1007.18
2017-05-07T01:36:59.075Z,1007.17
2017-05-07T01:38:10.081Z,1007.15
2017-05-07T01:39:21.098Z,1007.17
2017-05-07T01:40:32.131Z,1007.17
2017-05-07T01:41:43.140Z,1007.17
2017-05-07T01:42:54.204Z,1007.21
2017-05-07T01:44:05.219Z,1007.21
2017-05-07T01:45:16.418Z,1007.19
2017-05-07T01:46:27.422Z,1007.23
2017-05-07T01:47:38.419Z,1007.23
2017-05-07T01:48:49.436Z,1007.25
2017-05-07T01:50:00.442Z,1007.23
2017-05-07T01:51:11.443Z,1007.25
2017-05-07T01:52:22.500Z,1007.28
2017-05-07T01:53:33.499Z,1007.28
2017-05-07T01:54:44.515Z,1007.27
2017-05-07T01:55:55.727Z,1007.27
2017-05-07T01:57:06.730Z,1007.28
2017-05-07T01:58:17.728Z,1007.3
2017-05-07T01:59:29.329Z,1007.3
2017-05-07T02:00:40.530Z,1007.29
2017-05-07T02:01:51.942Z,1007.26
2017-05-07T02:03:03.204Z,1007.26
2017-05-07T02:04:14.207Z,1007.25
2017-05-07T02:05:25.206Z,1007.27
2017-05-07T02:06:36.218Z,1007.28
2017-05-07T02:07:47.225Z,1007.31
2017-05-07T02:08:58.233Z,1007.28
2017-05-07T02:10:09.244Z,1007.32
2017-05-07T02:11:20.289Z,1007.33
2017-05-07T02:12:31.284Z,1007.32
2017-05-07T02:13:42.349Z,1007.29
2017-05-07T02:14:53.562Z,1007.34
2017-05-07T02:16:04.974Z,1007.33
2017-05-07T02:17:15.968Z,1007.31
2017-05-07T02:18:26.973Z,1007.34
2017-05-07T02:19:37.988Z,1007.29
2017-05-07T02:20:48.991Z,1007.29
2017-05-07T02:21:59.996Z,1007.3
2017-05-07T02:23:11.419Z,1007.25
2017-05-07T02:24:22.478Z,1007.24
2017-05-07T02:25:33.720Z,1007.27
2017-05-07T02:26:44.735Z,1007.21
2017-05-07T02:27:55.952Z,1007.21
2017-05-07T02:29:06.960Z,1007.2
2017-05-07T02:30:17.967Z,1007.19
2017-05-07T02:31:29.180Z,1007.22
2017-05-07T02:32:40.189Z,1007.21
2017-05-07T02:33:51.199Z,1007.24
2017-05-07T02:35:02.221Z,1007.17
2017-05-07T02:36:13.229Z,1007.2
2017-05-07T02:37:24.237Z,1007.22
2017-05-07T02:38:35.253Z,1007.21
2017-05-07T02:39:46.284Z,1007.19
2017-05-07T02:40:57.316Z,1007.19
2017-05-07T02:42:08.312Z,1007.24
2017-05-07T02:43:19.323Z,1007.2
2017-05-07T02:44:30.319Z,1007.22
2017-05-07T02:45:41.526Z,1007.25
2017-05-07T02:46:52.591Z,1007.22
2017-05-07T02:48:03.587Z,1007.26
2017-05-07T02:49:14.586Z,1007.23
2017-05-07T02:50:25.602Z,1007.25
2017-05-07T02:51:36.599Z,1007.27
2017-05-07T02:52:47.603Z,1007.28
2017-05-07T02:53:58.616Z,1007.28
2017-05-07T02:55:09.623Z,1007.29
2017-05-07T02:56:20.688Z,1007.28
2017-05-07T02:57:31.683Z,1007.26
2017-05-07T02:58:42.916Z,1007.31
2017-05-07T02:59:53.923Z,1007.31
2017-05-07T03:01:05.134Z,1007.3
2017-05-07T03:02:16.346Z,1007.34
2017-05-07T03:03:27.352Z,1007.34
2017-05-07T03:04:38.395Z,1007.35
2017-05-07T03:05:49.400Z,1007.35
2017-05-07T03:07:00.459Z,1007.33
2017-05-07T03:08:11.472Z,1007.32
2017-05-07T03:09:22.681Z,1007.29
2017-05-07T03:10:33.694Z,1007.3
2017-05-07T03:11:44.906Z,1007.29
2017-05-07T03:12:55.902Z,1007.31
2017-05-07T03:14:06.905Z,1007.31
2017-05-07T03:15:17.916Z,1007.3
2017-05-07T03:16:28.915Z,1007.28
2017-05-07T03:17:40.170Z,1007.31
2017-05-07T03:18:51.175Z,1007.28
2017-05-07T03:20:02.173Z,1007.28
2017-05-07T03:21:13.179Z,1007.26
2017-05-07T03:22:24.191Z,1007.27
2017-05-07T03:23:35.201Z,1007.28
2017-05-07T03:24:46.206Z,1007.27
2017-05-07T03:25:57.222Z,1007.3
2017-05-07T03:27:08.223Z,1007.29
2017-05-07T03:28:19.279Z,1007.28
2017-05-07T03:29:30.500Z,1007.25
2017-05-07T03:30:41.498Z,1007.23
2017-05-07T03:31:52.502Z,1007.25
2017-05-07T03:33:03.511Z,1007.23
2017-05-07T03:34:14.566Z,1007.2
2017-05-07T03:35:25.576Z,1007.23
2017-05-07T03:36:36.786Z,1007.23
2017-05-07T03:37:47.802Z,1007.24
2017-05-07T03:38:58.809Z,1007.31
2017-05-07T03:40:10.026Z,1007.3
2017-05-07T03:41:21.245Z,1007.3
2017-05-07T03:42:32.257Z,1007.29
2017-05-07T03:43:43.274Z,1007.29
2017-05-07T03:44:54.272Z,1007.27
2017-05-07T03:46:05.333Z,1007.26
2017-05-07T03:47:16.334Z,1007.26
2017-05-07T03:48:27.341Z,1007.27
2017-05-07T03:49:38.351Z,1007.29
2017-05-07T03:50:49.355Z,1007.26
2017-05-07T03:52:00.563Z,1007.3
2017-05-07T03:53:11.567Z,1007.27
2017-05-07T03:54:22.777Z,1007.32
2017-05-07T03:55:33.787Z,1007.29
2017-05-07T03:56:44.881Z,1007.33
2017-05-07T03:57:55.878Z,1007.31
2017-05-07T03:59:06.884Z,1007.33
2017-05-07T04:00:17.901Z,1007.31
2017-05-07T04:01:28.903Z,1007.3
2017-05-07T04:02:39.916Z,1007.3
2017-05-07T04:03:50.931Z,1007.29
2017-05-07T04:05:01.924Z,1007.32
2017-05-07T04:06:12.977Z,1007.31
2017-05-07T04:07:23.980Z,1007.27
2017-05-07T04:08:34.978Z,1007.32
2017-05-07T04:09:46.194Z,1007.27
2017-05-07T04:10:57.206Z,1007.31
2017-05-07T04:12:08.418Z,1007.36
2017-05-07T04:13:19.410Z,1007.3
2017-05-07T04:14:30.614Z,1007.31
2017-05-07T04:15:41.612Z,1007.35
2017-05-07T04:16:52.666Z,1007.33
2017-05-07T04:18:03.673Z,1007.37
2017-05-07T04:19:14.666Z,1007.35
2017-05-07T04:20:25.896Z,1007.37
2017-05-07T04:21:36.913Z,1007.38
2017-05-07T04:22:47.919Z,1007.41
2017-05-07T04:23:59.121Z,1007.42
2017-05-07T04:25:10.130Z,1007.45
2017-05-07T04:26:21.163Z,1007.48
2017-05-07T04:27:32.206Z,1007.41
2017-05-07T04:28:43.206Z,1007.41
2017-05-07T04:29:54.214Z,1007.48
2017-05-07T04:31:05.218Z,1007.46
2017-05-07T04:32:16.229Z,1007.48
2017-05-07T04:33:27.233Z,1007.48
2017-05-07T04:34:38.244Z,1007.52
2017-05-07T04:35:49.247Z,1007.45
2017-05-07T04:37:00.244Z,1007.47
2017-05-07T04:38:11.508Z,1007.48
2017-05-07T04:39:22.708Z,1007.51
2017-05-07T04:40:33.707Z,1007.51
2017-05-07T04:41:44.716Z,1007.54
2017-05-07T04:42:55.926Z,1007.49
2017-05-07T04:44:06.937Z,1007.51
2017-05-07T04:45:18.143Z,1007.57
2017-05-07T04:46:29.144Z,1007.56
2017-05-07T04:47:40.342Z,1007.57
2017-05-07T04:48:51.358Z,1007.61
2017-05-07T04:50:02.371Z,1007.61
2017-05-07T04:51:13.378Z,1007.59
2017-05-07T04:52:24.395Z,1007.58
2017-05-07T04:53:35.413Z,1007.61
2017-05-07T04:54:46.435Z,1007.64
2017-05-07T04:55:57.504Z,1007.66
2017-05-07T04:57:08.500Z,1007.65
2017-05-07T04:58:19.506Z,1007.69
2017-05-07T04:59:30.515Z,1007.67
2017-05-07T05:00:41.524Z,1007.69
2017-05-07T05:01:52.517Z,1007.72
2017-05-07T05:03:03.519Z,1007.72
2017-05-07T05:04:14.531Z,1007.75
2017-05-07T05:05:25.740Z,1007.75
2017-05-07T05:06:36.757Z,1007.77
2017-05-07T05:07:47.762Z,1007.79
2017-05-07T05:08:58.777Z,1007.82
2017-05-07T05:10:09.842Z,1007.86
2017-05-07T05:11:20.843Z,1007.87
2017-05-07T05:12:31.853Z,1007.87
2017-05-07T05:13:42.866Z,1007.9
2017-05-07T05:14:53.878Z,1007.94
2017-05-07T05:16:04.882Z,1007.93
2017-05-07T05:17:15.881Z,1007.94
2017-05-07T05:18:27.094Z,1007.96
2017-05-07T05:19:38.093Z,1007.97
2017-05-07T05:20:49.165Z,1007.97
2017-05-07T05:22:00.386Z,1008
2017-05-07T05:23:11.403Z,1008.02
2017-05-07T05:24:22.414Z,1008.05
2017-05-07T05:25:33.420Z,1008.04
2017-05-07T05:26:44.419Z,1008.03
2017-05-07T05:27:55.428Z,1008.03
2017-05-07T05:29:06.431Z,1008.06
2017-05-07T05:30:17.441Z,1008.09
2017-05-07T05:31:28.498Z,1008.11
2017-05-07T05:32:39.705Z,1008.09
2017-05-07T05:33:50.709Z,1008.09
2017-05-07T05:35:01.729Z,1008.11
2017-05-07T05:36:12.742Z,1008.15
2017-05-07T05:37:23.735Z,1008.18
2017-05-07T05:38:34.946Z,1008.15
2017-05-07T05:39:45.956Z,1008.18
2017-05-07T05:40:56.974Z,1008.17
2017-05-07T05:42:08.241Z,1008.21
2017-05-07T05:43:19.248Z,1008.25
2017-05-07T05:44:30.280Z,1008.23
2017-05-07T05:45:41.277Z,1008.2
2017-05-07T05:46:52.291Z,1008.24
2017-05-07T05:48:03.294Z,1008.24
2017-05-07T05:49:14.300Z,1008.22
2017-05-07T05:50:25.501Z,1008.24
2017-05-07T05:51:36.497Z,1008.23
2017-05-07T05:52:47.497Z,1008.26
2017-05-07T05:53:58.505Z,1008.26
2017-05-07T05:55:09.514Z,1008.26
2017-05-07T05:56:20.715Z,1008.28
2017-05-07T05:57:31.721Z,1008.26
2017-05-07T05:58:42.726Z,1008.3
2017-05-07T05:59:53.792Z,1008.3
2017-05-07T06:01:04.789Z,1008.33
2017-05-07T06:02:15.795Z,1008.35
2017-05-07T06:03:26.807Z,1008.42
2017-05-07T06:04:37.814Z,1008.4
2017-05-07T06:05:48.830Z,1008.36
2017-05-07T06:07:00.060Z,1008.36
2017-05-07T06:08:11.078Z,1008.38
2017-05-07T06:09:22.184Z,1008.39
2017-05-07T06:10:33.199Z,1008.43
2017-05-07T06:11:44.212Z,1008.42
2017-05-07T06:12:55.225Z,1008.41
2017-05-07T06:14:06.447Z,1008.46
2017-05-07T06:15:17.462Z,1008.46
2017-05-07T06:16:28.467Z,1008.5
2017-05-07T06:17:39.473Z,1008.48
2017-05-07T06:18:50.467Z,1008.49
2017-05-07T06:20:01.512Z,1008.56
2017-05-07T06:21:12.542Z,1008.54
2017-05-07T06:22:23.549Z,1008.57
2017-05-07T06:23:34.570Z,1008.56
2017-05-07T06:24:45.781Z,1008.58
2017-05-07T06:25:56.797Z,1008.55
2017-05-07T06:27:07.840Z,1008.52
2017-05-07T06:28:18.854Z,1008.55
2017-05-07T06:29:29.863Z,1008.55
2017-05-07T06:30:40.930Z,1008.55
2017-05-07T06:31:51.944Z,1008.59
2017-05-07T06:33:02.960Z,1008.56
2017-05-07T06:34:13.980Z,1008.57
2017-05-07T06:35:24.983Z,1008.6
2017-05-07T06:36:36.021Z,1008.65
2017-05-07T06:37:47.031Z,1008.66
2017-05-07T06:38:58.047Z,1008.66
2017-05-07T06:40:09.278Z,1008.69
2017-05-07T06:41:20.340Z,1008.68
2017-05-07T06:42:31.347Z,1008.69
2017-05-07T06:43:42.352Z,1008.7
2017-05-07T06:44:53.371Z,1008.72
2017-05-07T06:46:04.386Z,1008.76
2017-05-07T06:47:15.384Z,1008.77
2017-05-07T06:48:26.395Z,1008.82
2017-05-07T06:49:37.402Z,1008.85
2017-05-07T06:50:48.413Z,1008.9
2017-05-07T06:51:59.428Z,1008.91
2017-05-07T06:53:10.442Z,1008.96
2017-05-07T06:54:21.448Z,1008.93
2017-05-07T06:55:32.449Z,1008.89
2017-05-07T06:56:43.652Z,1008.89
2017-05-07T06:57:54.662Z,1008.95
2017-05-07T06:59:05.666Z,1008.96
2017-05-07T07:00:16.674Z,1008.95
2017-05-07T07:01:27.673Z,1008.98
2017-05-07T07:02:38.678Z,1008.98
2017-05-07T07:03:49.728Z,1009
2017-05-07T07:05:00.741Z,1008.99
2017-05-07T07:06:11.748Z,1009.04
2017-05-07T07:07:22.765Z,1009.04
2017-05-07T07:08:33.774Z,1009.04
2017-05-07T07:09:44.782Z,1009.02
2017-05-07T07:10:55.791Z,1009.07
2017-05-07T07:12:06.791Z,1009.09
2017-05-07T07:13:17.870Z,1009.14
2017-05-07T07:14:28.871Z,1009.12
2017-05-07T07:15:40.099Z,1009.12
2017-05-07T07:16:51.102Z,1009.08
2017-05-07T07:18:02.514Z,1009.11
2017-05-07T07:19:13.514Z,1009.13
2017-05-07T07:20:24.513Z,1009.16
2017-05-07T07:21:35.530Z,1009.11
2017-05-07T07:22:46.540Z,1009.15
2017-05-07T07:23:57.605Z,1009.1
2017-05-07T07:25:08.619Z,1009.16
2017-05-07T07:26:19.634Z,1009.2
2017-05-07T07:27:30.640Z,1009.19
2017-05-07T07:28:41.652Z,1009.2
2017-05-07T07:29:52.666Z,1009.26
2017-05-07T07:31:03.692Z,1009.29
2017-05-07T07:32:14.699Z,1009.31
2017-05-07T07:33:25.714Z,1009.33
2017-05-07T07:34:36.777Z,1009.37
2017-05-07T07:35:47.782Z,1009.38
2017-05-07T07:36:58.802Z,1009.38
2017-05-07T07:38:09.807Z,1009.41
2017-05-07T07:39:20.820Z,1009.4
2017-05-07T07:40:32.024Z,1009.43
2017-05-07T07:41:43.028Z,1009.43
2017-05-07T07:42:54.039Z,1009.41
2017-05-07T07:44:05.039Z,1009.4
2017-05-07T07:45:16.050Z,1009.41
2017-05-07T07:46:27.061Z,1009.4
2017-05-07T07:47:38.071Z,1009.43
2017-05-07T07:48:49.083Z,1009.41
2017-05-07T07:50:00.284Z,1009.46
2017-05-07T07:51:11.287Z,1009.46
2017-05-07T07:52:22.491Z,1009.44
2017-05-07T07:53:33.713Z,1009.47
2017-05-07T07:54:44.918Z,1009.5
2017-05-07T07:55:56.116Z,1009.53
2017-05-07T07:57:07.322Z,1009.51
2017-05-07T07:58:18.531Z,1009.52
2017-05-07T07:59:29.742Z,1009.51
2017-05-07T08:00:40.748Z,1009.58
2017-05-07T08:01:51.817Z,1009.55
2017-05-07T08:03:03.030Z,1009.57
2017-05-07T08:04:14.044Z,1009.6
2017-05-07T08:05:25.048Z,1009.53
2017-05-07T08:06:36.051Z,1009.56
2017-05-07T08:07:47.457Z,1009.59
2017-05-07T08:08:58.482Z,1009.61
2017-05-07T08:10:09.498Z,1009.6
2017-05-07T08:11:20.559Z,1009.62
2017-05-07T08:12:31.631Z,1009.67
2017-05-07T08:13:42.650Z,1009.7
2017-05-07T08:14:53.657Z,1009.7
2017-05-07T08:16:04.665Z,1009.74
2017-05-07T08:17:15.671Z,1009.68
2017-05-07T08:18:26.680Z,1009.71
2017-05-07T08:19:37.729Z,1009.68
2017-05-07T08:20:48.738Z,1009.7
2017-05-07T08:22:00.007Z,1009.71
2017-05-07T08:23:11.018Z,1009.75
2017-05-07T08:24:22.044Z,1009.7
2017-05-07T08:25:33.063Z,1009.69
2017-05-07T08:26:44.274Z,1009.72
2017-05-07T08:27:55.282Z,1009.76
2017-05-07T08:29:06.298Z,1009.75
2017-05-07T08:30:17.305Z,1009.76
2017-05-07T08:31:28.312Z,1009.75
2017-05-07T08:32:39.367Z,1009.8
2017-05-07T08:33:50.581Z,1009.78
2017-05-07T08:35:01.791Z,1009.8
2017-05-07T08:36:12.808Z,1009.83
2017-05-07T08:37:23.823Z,1009.8
2017-05-07T08:38:34.839Z,1009.82
2017-05-07T08:39:45.849Z,1009.84
2017-05-07T08:40:56.857Z,1009.86
2017-05-07T08:42:07.875Z,1009.87
2017-05-07T08:43:18.939Z,1009.86
2017-05-07T08:44:29.947Z,1009.9
2017-05-07T08:45:41.168Z,1009.93
2017-05-07T08:46:52.179Z,1009.93
2017-05-07T08:48:03.185Z,1009.95
2017-05-07T08:49:14.464Z,1009.95
2017-05-07T08:50:25.472Z,1009.96
2017-05-07T08:51:36.479Z,1009.96
2017-05-07T08:52:47.486Z,1009.97
2017-05-07T08:53:58.497Z,1010.02
2017-05-07T08:55:09.510Z,1010.08
2017-05-07T08:56:20.525Z,1010.04
2017-05-07T08:57:31.529Z,1010.01
2017-05-07T08:58:42.548Z,1010.01
2017-05-07T08:59:53.559Z,1010.04
2017-05-07T09:01:04.561Z,1010.05
2017-05-07T09:02:15.577Z,1010.12
2017-05-07T09:03:26.973Z,1010.05
2017-05-07T09:04:37.977Z,1010.07
2017-05-07T09:05:48.981Z,1010.12
2017-05-07T09:07:00.250Z,1010.09
2017-05-07T09:08:11.254Z,1010.13
2017-05-07T09:09:22.253Z,1010.13
2017-05-07T09:10:33.684Z,1010.14
2017-05-07T09:11:44.906Z,1010.16
2017-05-07T09:12:55.911Z,1010.18
2017-05-07T09:14:07.121Z,1010.23
2017-05-07T09:15:18.137Z,1010.38
2017-05-07T09:16:29.196Z,1010.38
2017-05-07T09:17:40.202Z,1010.25
2017-05-07T09:18:51.424Z,1010.27
2017-05-07T09:20:02.439Z,1010.25
2017-05-07T09:21:13.445Z,1010.28
2017-05-07T09:22:24.444Z,1010.23
2017-05-07T09:23:35.458Z,1010.26
2017-05-07T09:24:46.472Z,1010.3
2017-05-07T09:25:57.697Z,1010.46
2017-05-07T09:27:08.759Z,1010.32
2017-05-07T09:28:19.974Z,1010.3
2017-05-07T09:29:30.980Z,1010.32
2017-05-07T09:30:41.979Z,1010.38
2017-05-07T09:31:52.992Z,1010.41
2017-05-07T09:33:03.997Z,1010.71
2017-05-07T09:34:15.010Z,1010.63
2017-05-07T09:35:26.217Z,1010.9
2017-05-07T09:36:37.238Z,1010.58
2017-05-07T09:37:48.303Z,1010.8
2017-05-07T09:38:59.312Z,1010.94
2017-05-07T09:40:10.334Z,1010.79
2017-05-07T09:41:21.339Z,1010.58
2017-05-07T09:42:32.348Z,1010.64
2017-05-07T09:43:43.570Z,1010.8
2017-05-07T09:44:54.581Z,1011.03
2017-05-07T09:46:05.599Z,1011.15
2017-05-07T09:47:16.622Z,1010.64
2017-05-07T09:48:27.679Z,1010.75
2017-05-07T09:49:38.699Z,1010.91
2017-05-07T09:50:49.713Z,1010.9
2017-05-07T09:52:00.931Z,1010.54
2017-05-07T09:53:11.938Z,1010.53
2017-05-07T09:54:23.000Z,1010.64
2017-05-07T09:55:34.020Z,1010.58
2017-05-07T09:56:45.247Z,1010.52
2017-05-07T09:57:56.477Z,1010.48
2017-05-07T09:59:07.689Z,1010.45
2017-05-07T10:00:18.917Z,1010.5
2017-05-07T10:01:29.929Z,1010.52
2017-05-07T10:02:40.953Z,1010.44
2017-05-07T10:03:51.959Z,1010.51
2017-05-07T10:05:02.971Z,1010.57
2017-05-07T10:06:14.034Z,1010.57
2017-05-07T10:07:25.045Z,1010.73
2017-05-07T10:08:36.260Z,1010.87
2017-05-07T10:09:47.283Z,1011
2017-05-07T10:10:58.509Z,1011.15
2017-05-07T10:12:09.513Z,1011.04
2017-05-07T10:13:20.527Z,1011.18
2017-05-07T10:14:31.553Z,1010.69
2017-05-07T10:15:42.620Z,1010.6
2017-05-07T10:16:53.654Z,1010.65
2017-05-07T10:18:04.682Z,1010.93
2017-05-07T10:19:15.904Z,1010.61
2017-05-07T10:20:26.934Z,1010.5
2017-05-07T10:21:37.953Z,1010.5
2017-05-07T10:22:48.984Z,1010.44
2017-05-07T10:24:00.002Z,1010.39
2017-05-07T10:25:11.042Z,1010.44
2017-05-07T10:26:22.322Z,1010.42
2017-05-07T10:27:33.329Z,1010.5
2017-05-07T10:28:44.540Z,1010.54
2017-05-07T10:29:55.613Z,1010.63
2017-05-07T10:31:07.239Z,1010.76
2017-05-07T10:32:18.461Z,1010.76
2017-05-07T10:33:29.478Z,1011.02
2017-05-07T10:34:40.505Z,1011.06
2017-05-07T10:35:51.516Z,1011.61
2017-05-07T10:37:02.595Z,1011.07
2017-05-07T10:38:13.611Z,1010.56
2017-05-07T10:39:24.840Z,1010.62
2017-05-07T10:40:35.859Z,1010.62
2017-05-07T10:41:46.902Z,1010.55
2017-05-07T10:42:58.129Z,1010.49
2017-05-07T10:44:09.146Z,1010.43
2017-05-07T10:45:20.379Z,1010.45
2017-05-07T10:46:31.409Z,1010.4
2017-05-07T10:47:42.676Z,1010.44
2017-05-07T10:48:53.906Z,1010.45
2017-05-07T10:50:04.920Z,1010.45
2017-05-07T10:51:15.933Z,1010.48
2017-05-07T10:52:26.967Z,1010.46
2017-05-07T10:53:38.196Z,1010.46
2017-05-07T10:54:49.219Z,1010.46
2017-05-07T10:56:00.239Z,1010.48
2017-05-07T10:57:11.276Z,1010.49
2017-05-07T10:58:22.294Z,1010.47
2017-05-07T10:59:33.516Z,1010.4
2017-05-07T11:00:44.737Z,1010.42
2017-05-07T11:01:55.754Z,1010.41
2017-05-07T11:03:06.770Z,1010.38
2017-05-07T11:04:17.785Z,1010.42
2017-05-07T11:05:29.264Z,1010.47
2017-05-07T11:06:40.481Z,1010.55
2017-05-07T11:07:51.497Z,1011.2
2017-05-07T11:09:02.502Z,1011.48
2017-05-07T11:10:13.535Z,1011.64
2017-05-07T11:11:24.953Z,1011.34
2017-05-07T11:12:35.975Z,1011.56
2017-05-07T11:13:46.995Z,1011.29
2017-05-07T11:14:58.050Z,1011.91
2017-05-07T11:16:09.072Z,1012.13
2017-05-07T11:17:20.293Z,1010.97
2017-05-07T11:18:31.303Z,1011.42
2017-05-07T11:19:42.322Z,1011.35
2017-05-07T11:20:53.538Z,1010.44
2017-05-07T11:22:04.560Z,1010.35
2017-05-07T11:23:15.573Z,1010.42
2017-05-07T11:24:26.599Z,1010.48
2017-05-07T11:25:37.647Z,1010.52
2017-05-07T11:26:48.665Z,1010.56
2017-05-07T11:27:59.694Z,1010.73
2017-05-07T11:29:10.701Z,1010.7
2017-05-07T11:30:21.772Z,1010.68
2017-05-07T11:31:32.790Z,1010.68
2017-05-07T11:32:44.006Z,1010.49
2017-05-07T11:33:55.019Z,1010.35
2017-05-07T11:35:06.262Z,1010.31
2017-05-07T11:36:17.277Z,1010.27
2017-05-07T11:37:28.521Z,1010.25
2017-05-07T11:38:39.539Z,1010.27
2017-05-07T11:39:50.554Z,1010.26
2017-05-07T11:41:01.626Z,1010.27
2017-05-07T11:42:12.650Z,1010.23
2017-05-07T11:43:23.659Z,1010.24
2017-05-07T11:44:34.907Z,1010.25
2017-05-07T11:45:45.923Z,1010.27
2017-05-07T11:46:56.961Z,1010.24
2017-05-07T11:48:07.981Z,1010.25
2017-05-07T11:49:19.001Z,1010.28
2017-05-07T11:50:30.024Z,1010.24
2017-05-07T11:51:41.317Z,1010.3
2017-05-07T11:52:52.353Z,1010.27
2017-05-07T11:54:03.374Z,1010.3
2017-05-07T11:55:14.602Z,1010.28
2017-05-07T11:56:25.619Z,1010.26
2017-05-07T11:57:36.684Z,1010.23
2017-05-07T11:58:47.703Z,1010.22
2017-05-07T11:59:58.730Z,1010.27
2017-05-07T12:01:10.142Z,1010.25
2017-05-07T12:02:21.568Z,1010.27
2017-05-07T12:03:32.578Z,1010.25
2017-05-07T12:04:43.592Z,1010.31
2017-05-07T12:05:54.615Z,1010.27
2017-05-07T12:07:05.842Z,1010.27
2017-05-07T12:08:16.851Z,1010.29
2017-05-07T12:09:27.911Z,1010.3
2017-05-07T12:10:38.923Z,1010.34
2017-05-07T12:11:49.935Z,1010.31
2017-05-07T12:13:01.156Z,1010.26
2017-05-07T12:14:12.171Z,1010.26
2017-05-07T12:15:23.184Z,1010.34
2017-05-07T12:16:34.201Z,1010.34
2017-05-07T12:17:45.205Z,1010.35
2017-05-07T12:18:56.270Z,1010.35
2017-05-07T12:20:07.489Z,1010.33
2017-05-07T12:21:18.505Z,1010.42
2017-05-07T12:22:29.511Z,1010.42
2017-05-07T12:23:40.518Z,1010.44
2017-05-07T12:24:51.937Z,1010.46
2017-05-07T12:26:02.949Z,1010.48
2017-05-07T12:27:13.983Z,1010.45
2017-05-07T12:28:24.995Z,1010.47
2017-05-07T12:29:36.065Z,1010.47
2017-05-07T12:30:47.087Z,1010.45
2017-05-07T12:31:58.098Z,1010.46
2017-05-07T12:33:09.103Z,1010.47
2017-05-07T12:34:20.118Z,1010.52
2017-05-07T12:35:31.139Z,1010.52
2017-05-07T12:36:42.355Z,1010.55
2017-05-07T12:37:53.572Z,1010.53
2017-05-07T12:39:04.581Z,1010.53
2017-05-07T12:40:15.789Z,1010.52
2017-05-07T12:41:26.802Z,1010.51
2017-05-07T12:42:38.024Z,1010.56
2017-05-07T12:43:49.029Z,1010.5
2017-05-07T12:45:00.261Z,1010.52
2017-05-07T12:46:11.373Z,1010.54
2017-05-07T12:47:22.595Z,1010.54
2017-05-07T12:48:33.606Z,1010.49
2017-05-07T12:49:44.646Z,1010.5
2017-05-07T12:50:55.665Z,1010.48
2017-05-07T12:52:06.678Z,1010.49
2017-05-07T12:53:17.709Z,1010.45
2017-05-07T12:54:28.918Z,1010.45
2017-05-07T12:55:39.981Z,1010.43
2017-05-07T12:56:51.196Z,1010.41
2017-05-07T12:58:02.211Z,1010.43
2017-05-07T12:59:13.233Z,1010.42
2017-05-07T13:00:24.251Z,1010.42
2017-05-07T13:01:35.274Z,1010.4
2017-05-07T13:02:46.494Z,1010.4
2017-05-07T13:03:57.511Z,1010.41
2017-05-07T13:05:08.528Z,1010.39
2017-05-07T13:06:19.549Z,1010.37
2017-05-07T13:07:30.555Z,1010.38
2017-05-07T13:08:41.774Z,1010.36
2017-05-07T13:09:52.786Z,1010.35
2017-05-07T13:11:03.990Z,1010.36
2017-05-07T13:12:15.003Z,1010.36
2017-05-07T13:13:26.067Z,1010.35
2017-05-07T13:14:37.081Z,1010.35
2017-05-07T13:15:48.087Z,1010.38
2017-05-07T13:16:59.141Z,1010.36
2017-05-07T13:18:10.161Z,1010.4
2017-05-07T13:19:21.568Z,1010.36
2017-05-07T13:20:32.586Z,1010.36
2017-05-07T13:21:43.807Z,1010.33
2017-05-07T13:22:54.879Z,1010.38
2017-05-07T13:24:05.903Z,1010.32
2017-05-07T13:25:16.916Z,1010.37
2017-05-07T13:26:27.931Z,1010.39
2017-05-07T13:27:38.949Z,1010.41
2017-05-07T13:28:49.965Z,1010.43
2017-05-07T13:30:00.979Z,1010.43
2017-05-07T13:31:11.994Z,1010.46
2017-05-07T13:32:23.015Z,1010.39
2017-05-07T13:33:34.098Z,1010.43
2017-05-07T13:34:45.118Z,1010.41
2017-05-07T13:35:56.161Z,1010.44
2017-05-07T13:37:07.209Z,1010.41
2017-05-07T13:38:18.214Z,1010.37
2017-05-07T13:39:29.234Z,1010.34
2017-05-07T13:40:40.261Z,1010.37
2017-05-07T13:41:51.276Z,1010.34
2017-05-07T13:43:02.489Z,1010.37
2017-05-07T13:44:13.558Z,1010.39
2017-05-07T13:45:24.571Z,1010.39
2017-05-07T13:46:35.591Z,1010.36
2017-05-07T13:47:46.605Z,1010.41
2017-05-07T13:48:57.647Z,1010.38
2017-05-07T13:50:08.861Z,1010.32
2017-05-07T13:51:19.874Z,1010.36
2017-05-07T13:52:30.894Z,1010.36
2017-05-07T13:53:42.323Z,1010.33
2017-05-07T13:54:53.406Z,1010.32
2017-05-07T13:56:04.655Z,1010.32
2017-05-07T13:57:15.881Z,1010.35
2017-05-07T13:58:26.889Z,1010.36
2017-05-07T13:59:38.105Z,1010.35
2017-05-07T14:00:49.129Z,1010.35
2017-05-07T14:02:00.353Z,1010.35
2017-05-07T14:03:11.368Z,1010.32
2017-05-07T14:04:22.392Z,1010.34
2017-05-07T14:05:33.413Z,1010.29
2017-05-07T14:06:44.435Z,1010.33
2017-05-07T14:07:55.447Z,1010.26
2017-05-07T14:09:06.478Z,1010.2
2017-05-07T14:10:17.516Z,1010.25
2017-05-07T14:11:28.538Z,1010.24
2017-05-07T14:12:39.548Z,1010.27
2017-05-07T14:13:50.564Z,1010.25
2017-05-07T14:15:01.784Z,1010.29
2017-05-07T14:16:12.795Z,1010.28
2017-05-07T14:17:23.855Z,1010.29
2017-05-07T14:18:34.865Z,1010.3
2017-05-07T14:19:45.869Z,1010.34
2017-05-07T14:20:56.876Z,1010.32
2017-05-07T14:22:07.889Z,1010.37
2017-05-07T14:23:18.916Z,1010.3